sensor_id;sensor_type;location;lat;lon;timestamp;temperature;humidity
44671;DHT22;48397;53.016;-2.260;2023-03-23T00:01:14;7.70;99.90
44671;DHT22;48397;53.016;-2.260;2023-03-23T00:03:47;7.80;99.90
44671;DHT22;48397;53.016;-2.260;2023-03-23T00:06:15;7.70;99.90
44671;DHT22;48397;53.016;-2.260;2023-03-23T00:08:44;7.80;99.90
44671;DHT22;48397;53.016;-2.260;2023-03-23T00:13:36;7.90;99.90
44671;DHT22;48397;53.016;-2.260;2023-03-23T00:16:03;7.90;99.90
44671;DHT22;48397;53.016;-2.260;2023-03-23T00:18:29;7.90;99.90
44671;DHT22;48397;53.016;-2.260;2023-03-23T00:20:56;7.90;99.90
44671;DHT22;48397;53.016;-2.260;2023-03-23T00:23:25;7.90;99.90
44671;DHT22;48397;53.016;-2.260;2023-03-23T00:25:54;7.90;99.90
44671;DHT22;48397;53.016;-2.260;2023-03-23T00:28:25;7.90;99.90
44671;DHT22;48397;53.016;-2.260;2023-03-23T00:31:00;7.90;99.90
44671;DHT22;48397;53.016;-2.260;2023-03-23T00:33:30;7.90;99.90
44671;DHT22;48397;53.016;-2.260;2023-03-23T00:35:59;7.90;99.90
44671;DHT22;48397;53.016;-2.260;2023-03-23T00:40:55;7.80;99.90
44671;DHT22;48397;53.016;-2.260;2023-03-23T00:43:23;7.80;99.90
44671;DHT22;48397;53.016;-2.260;2023-03-23T00:45:50;7.70;99.90
44671;DHT22;48397;53.016;-2.260;2023-03-23T00:48:21;7.60;99.90
44671;DHT22;48397;53.016;-2.260;2023-03-23T00:50:49;7.50;99.90
44671;DHT22;48397;53.016;-2.260;2023-03-23T00:53:16;7.50;99.90
44671;DHT22;48397;53.016;-2.260;2023-03-23T00:55:44;7.50;99.90
44671;DHT22;48397;53.016;-2.260;2023-03-23T00:58:13;7.30;99.90
44671;DHT22;48397;53.016;-2.260;2023-03-23T01:00:40;7.20;99.90
44671;DHT22;48397;53.016;-2.260;2023-03-23T01:03:08;7.10;99.90
44671;DHT22;48397;53.016;-2.260;2023-03-23T01:05:39;7.40;99.90
44671;DHT22;48397;53.016;-2.260;2023-03-23T01:08:07;7.10;99.90
44671;DHT22;48397;53.016;-2.260;2023-03-23T01:13:05;7.00;99.90
44671;DHT22;48397;53.016;-2.260;2023-03-23T01:15:33;6.90;99.90
44671;DHT22;48397;53.016;-2.260;2023-03-23T01:17:59;6.90;99.90
44671;DHT22;48397;53.016;-2.260;2023-03-23T01:20:26;6.80;99.90
44671;DHT22;48397;53.016;-2.260;2023-03-23T01:25:28;6.70;99.90
44671;DHT22;48397;53.016;-2.260;2023-03-23T01:27:56;6.60;99.90
44671;DHT22;48397;53.016;-2.260;2023-03-23T01:30:23;6.70;99.90
44671;DHT22;48397;53.016;-2.260;2023-03-23T01:32:50;6.70;99.90
44671;DHT22;48397;53.016;-2.260;2023-03-23T01:35:18;6.60;99.90
44671;DHT22;48397;53.016;-2.260;2023-03-23T01:37:45;6.60;99.90
44671;DHT22;48397;53.016;-2.260;2023-03-23T01:40:15;6.60;99.90
44671;DHT22;48397;53.016;-2.260;2023-03-23T01:42:43;6.60;99.90
44671;DHT22;48397;53.016;-2.260;2023-03-23T01:47:52;6.60;99.90
44671;DHT22;48397;53.016;-2.260;2023-03-23T01:50:22;6.50;99.90
44671;DHT22;48397;53.016;-2.260;2023-03-23T01:52:53;6.60;99.90
44671;DHT22;48397;53.016;-2.260;2023-03-23T01:55:20;6.60;99.90
44671;DHT22;48397;53.016;-2.260;2023-03-23T01:57:49;4.30;99.90
44671;DHT22;48397;53.016;-2.260;2023-03-23T02:00:17;6.50;99.90
44671;DHT22;48397;53.016;-2.260;2023-03-23T02:02:53;6.40;99.90
44671;DHT22;48397;53.016;-2.260;2023-03-23T02:05:31;6.50;99.90
44671;DHT22;48397;53.016;-2.260;2023-03-23T02:08:06;6.40;99.90
44671;DHT22;48397;53.016;-2.260;2023-03-23T02:10:36;6.40;99.90
44671;DHT22;48397;53.016;-2.260;2023-03-23T02:13:06;6.40;99.90
44671;DHT22;48397;53.016;-2.260;2023-03-23T02:18:23;6.30;99.90
44671;DHT22;48397;53.016;-2.260;2023-03-23T02:21:17;6.20;99.90
44671;DHT22;48397;53.016;-2.260;2023-03-23T02:35:28;6.20;99.90
44671;DHT22;48397;53.016;-2.260;2023-03-23T02:38:31;6.20;99.90
44671;DHT22;48397;53.016;-2.260;2023-03-23T02:41:00;6.10;99.90
44671;DHT22;48397;53.016;-2.260;2023-03-23T02:43:34;6.00;99.90
44671;DHT22;48397;53.016;-2.260;2023-03-23T02:46:07;6.00;99.90
44671;DHT22;48397;53.016;-2.260;2023-03-23T02:48:35;6.00;99.90
44671;DHT22;48397;53.016;-2.260;2023-03-23T02:51:02;6.00;99.90
44671;DHT22;48397;53.016;-2.260;2023-03-23T02:53:30;6.00;99.90
44671;DHT22;48397;53.016;-2.260;2023-03-23T02:55:59;6.00;99.90
44671;DHT22;48397;53.016;-2.260;2023-03-23T02:58:29;6.00;99.90
44671;DHT22;48397;53.016;-2.260;2023-03-23T03:00:57;6.00;99.90
44671;DHT22;48397;53.016;-2.260;2023-03-23T03:03:28;5.90;99.90
44671;DHT22;48397;53.016;-2.260;2023-03-23T03:06:19;5.90;99.90
44671;DHT22;48397;53.016;-2.260;2023-03-23T03:08:53;5.90;99.90
44671;DHT22;48397;53.016;-2.260;2023-03-23T03:11:21;5.90;99.90
44671;DHT22;48397;53.016;-2.260;2023-03-23T03:14:13;7.00;99.90
44671;DHT22;48397;53.016;-2.260;2023-03-23T03:19:33;5.70;99.90
44671;DHT22;48397;53.016;-2.260;2023-03-23T03:22:02;5.60;99.90
44671;DHT22;48397;53.016;-2.260;2023-03-23T03:24:38;5.50;99.90
44671;DHT22;48397;53.016;-2.260;2023-03-23T03:27:13;5.50;99.90
44671;DHT22;48397;53.016;-2.260;2023-03-23T03:29:55;5.40;99.90
44671;DHT22;48397;53.016;-2.260;2023-03-23T03:32:28;5.40;99.90
44671;DHT22;48397;53.016;-2.260;2023-03-23T03:35:02;5.40;99.90
44671;DHT22;48397;53.016;-2.260;2023-03-23T03:37:38;5.30;99.90
44671;DHT22;48397;53.016;-2.260;2023-03-23T03:40:10;5.20;99.90
44671;DHT22;48397;53.016;-2.260;2023-03-23T03:42:40;5.20;99.90
44671;DHT22;48397;53.016;-2.260;2023-03-23T03:45:11;5.10;99.90
44671;DHT22;48397;53.016;-2.260;2023-03-23T03:47:39;5.10;99.90
44671;DHT22;48397;53.016;-2.260;2023-03-23T03:50:08;4.90;99.90
44671;DHT22;48397;53.016;-2.260;2023-03-23T03:52:35;4.80;99.90
44671;DHT22;48397;53.016;-2.260;2023-03-23T03:55:02;4.80;99.90
44671;DHT22;48397;53.016;-2.260;2023-03-23T03:57:33;7.90;99.90
44671;DHT22;48397;53.016;-2.260;2023-03-23T04:00:19;4.70;99.90
44671;DHT22;48397;53.016;-2.260;2023-03-23T04:02:49;4.70;99.90
44671;DHT22;48397;53.016;-2.260;2023-03-23T04:05:41;4.60;99.90
44671;DHT22;48397;53.016;-2.260;2023-03-23T04:08:11;8.10;99.90
44671;DHT22;48397;53.016;-2.260;2023-03-23T04:10:38;4.60;99.90
44671;DHT22;48397;53.016;-2.260;2023-03-23T04:13:07;4.50;99.90
44671;DHT22;48397;53.016;-2.260;2023-03-23T04:15:33;4.50;99.90
44671;DHT22;48397;53.016;-2.260;2023-03-23T04:18:00;4.40;99.90
44671;DHT22;48397;53.016;-2.260;2023-03-23T04:20:28;4.80;99.90
44671;DHT22;48397;53.016;-2.260;2023-03-23T04:22:56;4.40;99.90
44671;DHT22;48397;53.016;-2.260;2023-03-23T04:25:24;4.30;99.90
44671;DHT22;48397;53.016;-2.260;2023-03-23T04:27:53;4.40;99.90
44671;DHT22;48397;53.016;-2.260;2023-03-23T04:30:28;4.40;99.90
44671;DHT22;48397;53.016;-2.260;2023-03-23T04:33:01;4.60;99.90
44671;DHT22;48397;53.016;-2.260;2023-03-23T04:35:30;3.30;99.90
44671;DHT22;48397;53.016;-2.260;2023-03-23T04:38:16;4.60;99.90
44671;DHT22;48397;53.016;-2.260;2023-03-23T04:40:46;4.70;99.90
44671;DHT22;48397;53.016;-2.260;2023-03-23T04:43:25;4.70;99.90
44671;DHT22;48397;53.016;-2.260;2023-03-23T04:46:11;4.70;99.90
44671;DHT22;48397;53.016;-2.260;2023-03-23T04:48:38;4.80;99.90
44671;DHT22;48397;53.016;-2.260;2023-03-23T04:51:16;4.80;99.90
44671;DHT22;48397;53.016;-2.260;2023-03-23T04:53:45;4.80;99.90
44671;DHT22;48397;53.016;-2.260;2023-03-23T04:56:12;4.80;99.90
44671;DHT22;48397;53.016;-2.260;2023-03-23T04:58:44;4.90;99.90
44671;DHT22;48397;53.016;-2.260;2023-03-23T05:01:33;4.90;99.90
44671;DHT22;48397;53.016;-2.260;2023-03-23T05:04:24;4.90;99.90
44671;DHT22;48397;53.016;-2.260;2023-03-23T05:07:04;4.90;99.90
44671;DHT22;48397;53.016;-2.260;2023-03-23T05:12:38;5.00;99.90
44671;DHT22;48397;53.016;-2.260;2023-03-23T05:15:08;5.00;99.90
44671;DHT22;48397;53.016;-2.260;2023-03-23T05:17:35;5.00;99.90
44671;DHT22;48397;53.016;-2.260;2023-03-23T05:20:11;5.00;99.90
44671;DHT22;48397;53.016;-2.260;2023-03-23T05:22:42;5.00;99.90
44671;DHT22;48397;53.016;-2.260;2023-03-23T05:25:12;4.90;99.90
44671;DHT22;48397;53.016;-2.260;2023-03-23T05:27:46;5.00;99.90
44671;DHT22;48397;53.016;-2.260;2023-03-23T05:30:49;5.00;99.90
44671;DHT22;48397;53.016;-2.260;2023-03-23T05:33:17;5.00;99.90
44671;DHT22;48397;53.016;-2.260;2023-03-23T05:35:58;4.90;99.90
44671;DHT22;48397;53.016;-2.260;2023-03-23T05:38:30;4.90;99.90
44671;DHT22;48397;53.016;-2.260;2023-03-23T05:40:59;4.90;99.90
44671;DHT22;48397;53.016;-2.260;2023-03-23T05:43:36;4.90;99.90
44671;DHT22;48397;53.016;-2.260;2023-03-23T05:46:21;5.00;99.90
44671;DHT22;48397;53.016;-2.260;2023-03-23T05:48:49;5.00;99.90
44671;DHT22;48397;53.016;-2.260;2023-03-23T05:51:18;5.00;99.90
44671;DHT22;48397;53.016;-2.260;2023-03-23T05:53:46;5.00;99.90
44671;DHT22;48397;53.016;-2.260;2023-03-23T05:59:00;5.10;99.90
44671;DHT22;48397;53.016;-2.260;2023-03-23T06:01:31;5.10;99.90
44671;DHT22;48397;53.016;-2.260;2023-03-23T06:03:59;5.10;99.90
44671;DHT22;48397;53.016;-2.260;2023-03-23T06:06:34;5.10;99.90
44671;DHT22;48397;53.016;-2.260;2023-03-23T06:09:08;5.10;99.90
44671;DHT22;48397;53.016;-2.260;2023-03-23T06:11:53;5.10;99.90
44671;DHT22;48397;53.016;-2.260;2023-03-23T06:17:11;5.10;99.90
44671;DHT22;48397;53.016;-2.260;2023-03-23T06:19:38;5.10;99.90
44671;DHT22;48397;53.016;-2.260;2023-03-23T06:22:12;5.10;99.90
44671;DHT22;48397;53.016;-2.260;2023-03-23T06:24:45;5.30;99.90
44671;DHT22;48397;53.016;-2.260;2023-03-23T06:27:15;5.40;99.90
44671;DHT22;48397;53.016;-2.260;2023-03-23T06:29:44;5.50;99.90
44671;DHT22;48397;53.016;-2.260;2023-03-23T06:32:11;5.70;99.90
44671;DHT22;48397;53.016;-2.260;2023-03-23T06:34:41;5.80;99.90
44671;DHT22;48397;53.016;-2.260;2023-03-23T06:37:29;6.00;99.90
44671;DHT22;48397;53.016;-2.260;2023-03-23T06:40:09;6.10;99.90
44671;DHT22;48397;53.016;-2.260;2023-03-23T06:42:39;6.20;99.90
44671;DHT22;48397;53.016;-2.260;2023-03-23T06:45:32;6.40;99.90
44671;DHT22;48397;53.016;-2.260;2023-03-23T06:48:19;6.40;99.90
44671;DHT22;48397;53.016;-2.260;2023-03-23T06:50:46;6.50;99.90
44671;DHT22;48397;53.016;-2.260;2023-03-23T06:53:16;6.60;99.90
44671;DHT22;48397;53.016;-2.260;2023-03-23T06:55:45;6.80;99.90
44671;DHT22;48397;53.016;-2.260;2023-03-23T06:58:13;6.80;99.90
44671;DHT22;48397;53.016;-2.260;2023-03-23T07:00:40;6.80;99.90
44671;DHT22;48397;53.016;-2.260;2023-03-23T07:08:06;6.70;99.90
44671;DHT22;48397;53.016;-2.260;2023-03-23T07:10:53;6.80;99.90
44671;DHT22;48397;53.016;-2.260;2023-03-23T07:13:23;6.90;99.90
44671;DHT22;48397;53.016;-2.260;2023-03-23T07:15:55;6.90;99.90
44671;DHT22;48397;53.016;-2.260;2023-03-23T07:18:22;7.00;99.90
44671;DHT22;48397;53.016;-2.260;2023-03-23T07:20:51;7.00;99.90
44671;DHT22;48397;53.016;-2.260;2023-03-23T07:23:19;7.10;99.90
44671;DHT22;48397;53.016;-2.260;2023-03-23T07:25:58;7.20;99.90
44671;DHT22;48397;53.016;-2.260;2023-03-23T07:28:31;7.40;99.90
44671;DHT22;48397;53.016;-2.260;2023-03-23T07:31:04;7.40;99.90
44671;DHT22;48397;53.016;-2.260;2023-03-23T07:33:31;7.40;99.90
44671;DHT22;48397;53.016;-2.260;2023-03-23T07:35:59;7.70;99.90
44671;DHT22;48397;53.016;-2.260;2023-03-23T07:38:27;7.60;99.90
44671;DHT22;48397;53.016;-2.260;2023-03-23T07:40:55;7.90;99.90
44671;DHT22;48397;53.016;-2.260;2023-03-23T07:43:22;8.00;99.90
44671;DHT22;48397;53.016;-2.260;2023-03-23T07:45:58;7.90;99.90
44671;DHT22;48397;53.016;-2.260;2023-03-23T07:48:32;8.00;99.90
44671;DHT22;48397;53.016;-2.260;2023-03-23T07:50:59;8.00;99.90
44671;DHT22;48397;53.016;-2.260;2023-03-23T07:53:28;8.00;99.90
44671;DHT22;48397;53.016;-2.260;2023-03-23T07:56:08;8.10;99.90
44671;DHT22;48397;53.016;-2.260;2023-03-23T07:58:57;8.00;99.90
44671;DHT22;48397;53.016;-2.260;2023-03-23T08:04:09;8.20;99.90
44671;DHT22;48397;53.016;-2.260;2023-03-23T08:06:56;8.20;99.90
44671;DHT22;48397;53.016;-2.260;2023-03-23T08:09:44;8.30;99.90
44671;DHT22;48397;53.016;-2.260;2023-03-23T08:12:30;8.40;99.90
44671;DHT22;48397;53.016;-2.260;2023-03-23T08:15:15;8.50;99.90
44671;DHT22;48397;53.016;-2.260;2023-03-23T08:17:48;8.50;99.90
44671;DHT22;48397;53.016;-2.260;2023-03-23T08:20:35;8.50;99.90
44671;DHT22;48397;53.016;-2.260;2023-03-23T08:23:13;8.60;99.90
44671;DHT22;48397;53.016;-2.260;2023-03-23T08:26:06;8.70;99.90
44671;DHT22;48397;53.016;-2.260;2023-03-23T08:28:45;8.80;99.90
44671;DHT22;48397;53.016;-2.260;2023-03-23T08:31:21;8.90;99.90
44671;DHT22;48397;53.016;-2.260;2023-03-23T08:34:04;9.00;99.90
44671;DHT22;48397;53.016;-2.260;2023-03-23T08:36:46;7.40;99.90
44671;DHT22;48397;53.016;-2.260;2023-03-23T08:39:13;9.70;99.90
44671;DHT22;48397;53.016;-2.260;2023-03-23T08:42:04;9.80;99.90
44671;DHT22;48397;53.016;-2.260;2023-03-23T08:44:54;9.80;99.90
44671;DHT22;48397;53.016;-2.260;2023-03-23T08:50:32;10.10;99.90
44671;DHT22;48397;53.016;-2.260;2023-03-23T08:53:35;10.00;99.90
44671;DHT22;48397;53.016;-2.260;2023-03-23T08:56:21;10.30;99.90
44671;DHT22;48397;53.016;-2.260;2023-03-23T08:59:15;10.40;99.90
44671;DHT22;48397;53.016;-2.260;2023-03-23T09:01:54;10.60;99.90
44671;DHT22;48397;53.016;-2.260;2023-03-23T09:04:26;10.80;99.90
44671;DHT22;48397;53.016;-2.260;2023-03-23T09:07:10;10.80;99.90
44671;DHT22;48397;53.016;-2.260;2023-03-23T09:09:38;10.80;99.90
44671;DHT22;48397;53.016;-2.260;2023-03-23T09:12:09;10.90;99.90
44671;DHT22;48397;53.016;-2.260;2023-03-23T09:14:36;11.00;99.90
44671;DHT22;48397;53.016;-2.260;2023-03-23T09:17:04;11.00;99.90
44671;DHT22;48397;53.016;-2.260;2023-03-23T09:19:32;11.00;99.90
44671;DHT22;48397;53.016;-2.260;2023-03-23T09:22:00;11.10;99.90
44671;DHT22;48397;53.016;-2.260;2023-03-23T09:24:27;11.10;99.90
44671;DHT22;48397;53.016;-2.260;2023-03-23T09:26:53;11.10;99.90
44671;DHT22;48397;53.016;-2.260;2023-03-23T09:29:20;11.10;99.90
44671;DHT22;48397;53.016;-2.260;2023-03-23T09:31:47;11.10;99.90
44671;DHT22;48397;53.016;-2.260;2023-03-23T09:34:14;11.10;99.90
44671;DHT22;48397;53.016;-2.260;2023-03-23T09:36:42;11.10;99.90
44671;DHT22;48397;53.016;-2.260;2023-03-23T09:39:09;11.10;99.90
44671;DHT22;48397;53.016;-2.260;2023-03-23T09:41:57;11.10;99.90
44671;DHT22;48397;53.016;-2.260;2023-03-23T09:50:04;11.30;99.90
44671;DHT22;48397;53.016;-2.260;2023-03-23T09:52:56;11.30;99.90
44671;DHT22;48397;53.016;-2.260;2023-03-23T09:55:25;11.40;99.90
44671;DHT22;48397;53.016;-2.260;2023-03-23T09:58:18;11.40;99.90
44671;DHT22;48397;53.016;-2.260;2023-03-23T10:01:04;11.40;99.90
44671;DHT22;48397;53.016;-2.260;2023-03-23T10:03:39;11.40;99.90
44671;DHT22;48397;53.016;-2.260;2023-03-23T10:06:09;11.70;99.90
44671;DHT22;48397;53.016;-2.260;2023-03-23T10:08:47;11.80;99.90
44671;DHT22;48397;53.016;-2.260;2023-03-23T10:16:27;12.30;99.90
44671;DHT22;48397;53.016;-2.260;2023-03-23T10:21:37;12.70;99.90
44671;DHT22;48397;53.016;-2.260;2023-03-23T10:24:09;13.00;99.90
44671;DHT22;48397;53.016;-2.260;2023-03-23T10:30:11;13.20;99.90
44671;DHT22;48397;53.016;-2.260;2023-03-23T10:32:56;13.30;99.90
44671;DHT22;48397;53.016;-2.260;2023-03-23T10:35:31;13.40;99.90
44671;DHT22;48397;53.016;-2.260;2023-03-23T10:38:06;13.50;99.90
44671;DHT22;48397;53.016;-2.260;2023-03-23T10:40:54;13.50;99.90
44671;DHT22;48397;53.016;-2.260;2023-03-23T10:43:23;13.60;99.90
44671;DHT22;48397;53.016;-2.260;2023-03-23T10:45:57;13.70;99.90
44671;DHT22;48397;53.016;-2.260;2023-03-23T10:48:35;13.60;99.90
44671;DHT22;48397;53.016;-2.260;2023-03-23T10:51:05;13.40;99.90
44671;DHT22;48397;53.016;-2.260;2023-03-23T10:53:37;13.40;99.90
44671;DHT22;48397;53.016;-2.260;2023-03-23T10:56:05;13.10;99.90
44671;DHT22;48397;53.016;-2.260;2023-03-23T10:58:34;12.60;99.90
44671;DHT22;48397;53.016;-2.260;2023-03-23T11:01:04;12.20;99.90
44671;DHT22;48397;53.016;-2.260;2023-03-23T11:03:42;11.80;99.90
44671;DHT22;48397;53.016;-2.260;2023-03-23T11:06:23;11.30;99.90
44671;DHT22;48397;53.016;-2.260;2023-03-23T11:09:00;11.40;99.90
44671;DHT22;48397;53.016;-2.260;2023-03-23T11:11:29;11.50;99.90
44671;DHT22;48397;53.016;-2.260;2023-03-23T11:13:59;11.60;99.90
44671;DHT22;48397;53.016;-2.260;2023-03-23T11:16:33;11.80;99.90
44671;DHT22;48397;53.016;-2.260;2023-03-23T11:19:13;12.00;99.90
44671;DHT22;48397;53.016;-2.260;2023-03-23T11:21:47;12.00;99.90
44671;DHT22;48397;53.016;-2.260;2023-03-23T11:24:13;12.40;99.90
44671;DHT22;48397;53.016;-2.260;2023-03-23T11:26:43;12.60;99.90
44671;DHT22;48397;53.016;-2.260;2023-03-23T11:29:17;12.90;99.90
44671;DHT22;48397;53.016;-2.260;2023-03-23T11:31:47;12.90;99.90
44671;DHT22;48397;53.016;-2.260;2023-03-23T11:37:12;13.40;99.90
44671;DHT22;48397;53.016;-2.260;2023-03-23T11:39:54;13.40;99.90
44671;DHT22;48397;53.016;-2.260;2023-03-23T11:42:22;13.50;99.90
44671;DHT22;48397;53.016;-2.260;2023-03-23T11:44:49;13.70;99.90
44671;DHT22;48397;53.016;-2.260;2023-03-23T11:47:30;14.00;99.90
44671;DHT22;48397;53.016;-2.260;2023-03-23T11:52:46;14.30;99.90
44671;DHT22;48397;53.016;-2.260;2023-03-23T11:55:25;14.20;99.90
44671;DHT22;48397;53.016;-2.260;2023-03-23T11:57:54;14.10;99.90
44671;DHT22;48397;53.016;-2.260;2023-03-23T12:00:23;14.10;99.90
44671;DHT22;48397;53.016;-2.260;2023-03-23T12:02:52;14.00;99.90
44671;DHT22;48397;53.016;-2.260;2023-03-23T12:06:08;14.00;99.90
44671;DHT22;48397;53.016;-2.260;2023-03-23T12:14:21;14.40;99.90
44671;DHT22;48397;53.016;-2.260;2023-03-23T12:28:02;14.30;99.90
44671;DHT22;48397;53.016;-2.260;2023-03-23T12:39:02;13.80;99.90
44671;DHT22;48397;53.016;-2.260;2023-03-23T12:41:49;14.00;99.90
44671;DHT22;48397;53.016;-2.260;2023-03-23T12:44:25;14.30;99.90
44671;DHT22;48397;53.016;-2.260;2023-03-23T12:50:07;14.40;99.90
44671;DHT22;48397;53.016;-2.260;2023-03-23T12:55:46;14.40;99.90
44671;DHT22;48397;53.016;-2.260;2023-03-23T12:58:20;14.50;99.90
44671;DHT22;48397;53.016;-2.260;2023-03-23T13:03:38;14.80;99.90
44671;DHT22;48397;53.016;-2.260;2023-03-23T13:08:40;14.90;99.90
44671;DHT22;48397;53.016;-2.260;2023-03-23T13:11:15;14.90;99.90
44671;DHT22;48397;53.016;-2.260;2023-03-23T13:13:48;15.10;99.90
44671;DHT22;48397;53.016;-2.260;2023-03-23T13:24:46;15.70;99.90
44671;DHT22;48397;53.016;-2.260;2023-03-23T13:27:16;15.70;99.90
44671;DHT22;48397;53.016;-2.260;2023-03-23T13:29:44;15.50;99.90
44671;DHT22;48397;53.016;-2.260;2023-03-23T13:32:16;15.50;99.90
44671;DHT22;48397;53.016;-2.260;2023-03-23T13:34:43;15.50;99.90
44671;DHT22;48397;53.016;-2.260;2023-03-23T13:42:27;15.80;99.90
44671;DHT22;48397;53.016;-2.260;2023-03-23T13:45:18;16.00;99.90
44671;DHT22;48397;53.016;-2.260;2023-03-23T13:47:46;15.90;99.90
44671;DHT22;48397;53.016;-2.260;2023-03-23T13:53:01;16.00;99.90
44671;DHT22;48397;53.016;-2.260;2023-03-23T13:55:42;16.40;99.90
44671;DHT22;48397;53.016;-2.260;2023-03-23T13:58:09;16.60;99.90
44671;DHT22;48397;53.016;-2.260;2023-03-23T14:00:48;16.60;99.90
44671;DHT22;48397;53.016;-2.260;2023-03-23T14:03:35;16.80;99.90
44671;DHT22;48397;53.016;-2.260;2023-03-23T14:06:06;16.40;99.90
44671;DHT22;48397;53.016;-2.260;2023-03-23T14:08:52;16.40;99.90
44671;DHT22;48397;53.016;-2.260;2023-03-23T14:11:26;16.00;99.90
44671;DHT22;48397;53.016;-2.260;2023-03-23T14:14:07;15.70;99.90
44671;DHT22;48397;53.016;-2.260;2023-03-23T14:16:49;15.70;99.90
44671;DHT22;48397;53.016;-2.260;2023-03-23T14:19:28;15.20;99.90
44671;DHT22;48397;53.016;-2.260;2023-03-23T14:21:57;14.90;99.90
44671;DHT22;48397;53.016;-2.260;2023-03-23T14:24:32;14.80;99.90
44671;DHT22;48397;53.016;-2.260;2023-03-23T14:27:22;14.40;99.90
44671;DHT22;48397;53.016;-2.260;2023-03-23T14:30:07;14.40;99.90
44671;DHT22;48397;53.016;-2.260;2023-03-23T14:32:34;14.10;99.90
44671;DHT22;48397;53.016;-2.260;2023-03-23T14:37:53;14.00;99.90
44671;DHT22;48397;53.016;-2.260;2023-03-23T14:40:21;14.00;99.90
44671;DHT22;48397;53.016;-2.260;2023-03-23T14:42:50;14.10;99.90
44671;DHT22;48397;53.016;-2.260;2023-03-23T14:45:19;14.90;99.90
44671;DHT22;48397;53.016;-2.260;2023-03-23T14:48:20;15.00;99.90
44671;DHT22;48397;53.016;-2.260;2023-03-23T14:50:51;15.20;99.90
44671;DHT22;48397;53.016;-2.260;2023-03-23T14:53:25;15.30;99.90
44671;DHT22;48397;53.016;-2.260;2023-03-23T14:55:54;15.20;99.90
44671;DHT22;48397;53.016;-2.260;2023-03-23T14:58:23;15.10;99.90
44671;DHT22;48397;53.016;-2.260;2023-03-23T15:03:36;15.30;99.90
44671;DHT22;48397;53.016;-2.260;2023-03-23T15:06:10;15.60;99.90
44671;DHT22;48397;53.016;-2.260;2023-03-23T15:08:38;15.60;99.90
44671;DHT22;48397;53.016;-2.260;2023-03-23T15:11:21;15.60;99.90
44671;DHT22;48397;53.016;-2.260;2023-03-23T15:13:51;15.40;99.90
44671;DHT22;48397;53.016;-2.260;2023-03-23T15:16:24;15.20;99.90
44671;DHT22;48397;53.016;-2.260;2023-03-23T15:19:18;15.00;99.90
44671;DHT22;48397;53.016;-2.260;2023-03-23T15:21:52;14.80;99.90
44671;DHT22;48397;53.016;-2.260;2023-03-23T15:24:25;14.70;99.90
44671;DHT22;48397;53.016;-2.260;2023-03-23T15:26:53;14.60;99.90
44671;DHT22;48397;53.016;-2.260;2023-03-23T15:29:22;14.60;99.90
44671;DHT22;48397;53.016;-2.260;2023-03-23T15:31:53;14.50;99.90
44671;DHT22;48397;53.016;-2.260;2023-03-23T15:34:35;14.30;99.90
44671;DHT22;48397;53.016;-2.260;2023-03-23T15:37:21;14.30;99.90
44671;DHT22;48397;53.016;-2.260;2023-03-23T15:39:50;14.20;99.90
44671;DHT22;48397;53.016;-2.260;2023-03-23T15:45:25;14.20;99.90
44671;DHT22;48397;53.016;-2.260;2023-03-23T15:47:52;14.20;99.90
44671;DHT22;48397;53.016;-2.260;2023-03-23T15:50:33;14.20;99.90
44671;DHT22;48397;53.016;-2.260;2023-03-23T15:53:00;14.20;99.90
44671;DHT22;48397;53.016;-2.260;2023-03-23T15:55:28;14.20;99.90
44671;DHT22;48397;53.016;-2.260;2023-03-23T15:57:57;14.20;99.90
44671;DHT22;48397;53.016;-2.260;2023-03-23T16:00:26;14.20;99.90
44671;DHT22;48397;53.016;-2.260;2023-03-23T16:03:03;14.30;99.90
44671;DHT22;48397;53.016;-2.260;2023-03-23T16:05:32;14.40;99.90
44671;DHT22;48397;53.016;-2.260;2023-03-23T16:08:00;14.40;99.90
44671;DHT22;48397;53.016;-2.260;2023-03-23T16:10:29;14.50;99.90
44671;DHT22;48397;53.016;-2.260;2023-03-23T16:12:56;14.50;99.90
44671;DHT22;48397;53.016;-2.260;2023-03-23T16:15:24;14.40;99.90
44671;DHT22;48397;53.016;-2.260;2023-03-23T16:17:52;14.20;99.90
44671;DHT22;48397;53.016;-2.260;2023-03-23T16:20:21;14.10;99.90
44671;DHT22;48397;53.016;-2.260;2023-03-23T16:22:51;14.00;99.90
44671;DHT22;48397;53.016;-2.260;2023-03-23T16:25:18;13.80;99.90
44671;DHT22;48397;53.016;-2.260;2023-03-23T16:27:46;13.80;99.90
44671;DHT22;48397;53.016;-2.260;2023-03-23T16:30:23;13.70;99.90
44671;DHT22;48397;53.016;-2.260;2023-03-23T16:32:51;13.60;99.90
44671;DHT22;48397;53.016;-2.260;2023-03-23T16:35:23;13.60;99.90
44671;DHT22;48397;53.016;-2.260;2023-03-23T16:37:52;13.50;99.90
44671;DHT22;48397;53.016;-2.260;2023-03-23T16:40:37;13.60;99.90
44671;DHT22;48397;53.016;-2.260;2023-03-23T16:43:05;13.50;99.90
44671;DHT22;48397;53.016;-2.260;2023-03-23T16:45:37;13.50;99.90
44671;DHT22;48397;53.016;-2.260;2023-03-23T16:48:09;13.40;99.90
44671;DHT22;48397;53.016;-2.260;2023-03-23T16:50:38;13.30;99.90
44671;DHT22;48397;53.016;-2.260;2023-03-23T16:53:09;13.20;99.90
44671;DHT22;48397;53.016;-2.260;2023-03-23T16:55:37;13.20;99.90
44671;DHT22;48397;53.016;-2.260;2023-03-23T16:58:06;13.00;99.90
44671;DHT22;48397;53.016;-2.260;2023-03-23T17:00:36;13.00;99.90
44671;DHT22;48397;53.016;-2.260;2023-03-23T17:03:06;12.90;99.90
44671;DHT22;48397;53.016;-2.260;2023-03-23T17:05:35;12.80;99.90
44671;DHT22;48397;53.016;-2.260;2023-03-23T17:08:04;12.70;99.90
44671;DHT22;48397;53.016;-2.260;2023-03-23T17:10:33;12.60;99.90
44671;DHT22;48397;53.016;-2.260;2023-03-23T17:13:01;13.50;99.90
44671;DHT22;48397;53.016;-2.260;2023-03-23T17:15:28;12.40;99.90
44671;DHT22;48397;53.016;-2.260;2023-03-23T17:17:56;12.40;99.90
44671;DHT22;48397;53.016;-2.260;2023-03-23T17:20:24;12.30;99.90
44671;DHT22;48397;53.016;-2.260;2023-03-23T17:22:52;12.30;99.90
44671;DHT22;48397;53.016;-2.260;2023-03-23T17:25:20;12.20;99.90
44671;DHT22;48397;53.016;-2.260;2023-03-23T17:27:47;12.10;99.90
44671;DHT22;48397;53.016;-2.260;2023-03-23T17:30:15;12.10;99.90
44671;DHT22;48397;53.016;-2.260;2023-03-23T17:32:43;12.00;99.90
44671;DHT22;48397;53.016;-2.260;2023-03-23T17:35:14;11.90;99.90
44671;DHT22;48397;53.016;-2.260;2023-03-23T17:37:42;11.90;99.90
44671;DHT22;48397;53.016;-2.260;2023-03-23T17:40:13;11.90;99.90
44671;DHT22;48397;53.016;-2.260;2023-03-23T17:42:41;11.80;99.90
44671;DHT22;48397;53.016;-2.260;2023-03-23T17:45:09;11.70;99.90
44671;DHT22;48397;53.016;-2.260;2023-03-23T17:50:05;11.70;99.90
44671;DHT22;48397;53.016;-2.260;2023-03-23T17:52:39;11.70;99.90
44671;DHT22;48397;53.016;-2.260;2023-03-23T17:55:08;11.70;99.90
44671;DHT22;48397;53.016;-2.260;2023-03-23T17:57:36;11.70;99.90
44671;DHT22;48397;53.016;-2.260;2023-03-23T18:00:04;11.80;99.90
44671;DHT22;48397;53.016;-2.260;2023-03-23T18:02:35;11.70;99.90
44671;DHT22;48397;53.016;-2.260;2023-03-23T18:05:04;11.70;99.90
44671;DHT22;48397;53.016;-2.260;2023-03-23T18:07:32;11.70;99.90
44671;DHT22;48397;53.016;-2.260;2023-03-23T18:12:28;11.60;99.90
44671;DHT22;48397;53.016;-2.260;2023-03-23T18:14:57;11.50;99.90
44671;DHT22;48397;53.016;-2.260;2023-03-23T18:17:25;11.50;99.90